Chanhassen, MN

12:10 PM CDT on August 03, 2015 (GMT -0500)
Springfield | Change Station
CLOSE
Current Station
Personal Weather Station
Location: Chanhassen, MN
Elevation: 909 ft
Nearby Weather Stations

Elev 909 ft 44.84 °N, 93.53 °W | Updated 42 seconds ago

Clear
Clear
72.4 °F
Feels Like 77 °F
N
11.0
Wind Variable Wind from NNW
Gusts 11.0 mph

Today
High -- | Low -- °F
--% Chance of Precip.
Yesterday
High -- | Low -- °F
Precip. -- in
6:02 AM 8:38 PM
Waning Gibbous, 85% visible
Pressure 29.91 in
Visibility 10.0 miles
Clouds Clear
Heat Index 77 °F
Dew Point 52 °F
Humidity 49%
Rainfall 0.00 in
Snow Depth Not available.
UV 6.7 out of 12
Pollen 8.00 out of 12
Ozone Good
PM10 Good
Flu Activity Not available.
METAR KFCM 031653Z 33010KT 10SM CLR 24/10 A2992 RMK AO2 SLP129 T02440100

More Conditions Fewer Conditions

Pressure 29.91 in
Visibility 10.0 miles
Clouds Clear
Heat Index 77 °F
Dew Point 52 °F
Humidity 49%
Rainfall 0.00 in
Snow Depth Not available.
UV 6.7 out of 12
Pollen 8.00 out of 12
Ozone Good
PM10 Good
Flu Activity Not available.
METAR KFCM 031653Z 33010KT 10SM CLR 24/10 A2992 RMK AO2 SLP129 T02440100

More Conditions Fewer Conditions

10-Day Weather Forecast

Almanac

Astronomy

Aug. 03, 2015 Rise Set
Actual Time 6:02 AM CDT 8:38 PM CDT
Civil Twilight 5:28 AM CDT 9:11 PM CDT
Nautical Twilight 4:46 AM CDT 9:53 PM CDT
Astronomical Twilight 3:58 AM CDT 10:40 PM CDT
Moon 10:30 PM CDT 9:59 AM CDT
Length of Visible Light 15h 42m
Length of Day
14h 36m
Tomorrow will be 2m 27s shorter.
Waning Gibbous, 85% of the Moon is Illuminated
Today
Waning Gibbous
Aug 6
Last Quarter
Aug 14
New
Aug 22
First Quarter
Aug 29
Full

Today's Extremes

State Highs State Lows

Community

WunderPhotos

Upload Photos

1,843,679 photos uploaded!

Nearby

Air Quality

  Air Quality AQ Index Pollutant
Yesterday Good
OZONE
Yesterday Good
PM10
Current Good
OZONE
Current Good
PM10
Monday Good
OZONE
Monday Good
PM2.5
Tuesday Good
OZONE
Tuesday Good
PM2.5
Wednesday Good
OZONE
Wednesday Good
PM2.5
Thursday Good
OZONE
Thursday Good
PM2.5
Friday Good
OZONE
Friday Good
PM2.5

Snow Depth

Station Depth Elevation
No new snow has been reported.

Earthquake Activity

City Distance Mag. Time & Date
No recent earthquake activity has been reported nearby.
Minimum magnitude displayed is 2.5.

Coastal Water Temperatures

Place Temperature
No Stations Reporting

Nearby Weather Stations